Time;durP1;ratioP1;P1;durP2;ratioP2;P2;SDS_P1;SDS_P2;PMS_P1;PMS_P2;Temp;Humidity;BMP_temperature;BMP_pressure;BME280_temperature;BME280_humidity;BME280_pressure;Samples;Min_cycle;Max_cycle;Signal;HPM_P1;HPM_P2
2022/09/10 05:26:55;;;;;;;34.65;23.02;;;;;;;;;;5304720;22;1373659;-57
2022/09/10 05:29:21;;;;;;;38.97;25.10;;;;;;;;;;5067715;28;20094;-56
2022/09/10 05:31:47;;;;;;;36.20;25.38;;;;;;;;;;5068056;28;20029;-56
2022/09/10 05:34:13;;;;;;;43.00;26.80;;;;;;;;;;5067643;28;20124;-56
2022/09/10 05:36:40;;;;;;;39.13;26.02;;;;;;;;;;5068483;28;20442;-57
2022/09/10 05:39:06;;;;;;;41.78;26.65;;;;;;;;;;5067537;28;20051;-56
2022/09/10 05:41:32;;;;;;;43.38;26.75;;;;;;;;;;5067860;28;20032;-57
2022/09/10 05:43:58;;;;;;;42.70;26.85;;;;;;;;;;5049731;28;20086;-61
2022/09/10 05:46:25;;;;;;;36.83;25.05;;;;;;;;;;5067500;28;20037;-57
2022/09/10 05:48:53;;;;;;;43.75;28.83;;;;;;;;;;5067690;28;20357;-57
2022/09/10 05:51:19;;;;;;;41.65;26.00;;;;;;;;;;5067916;28;20067;-57
2022/09/10 05:53:45;;;;;;;40.80;25.63;;;;;;;;;;5067813;28;20033;-57
2022/09/10 05:56:11;;;;;;;37.38;25.70;;;;;;;;;;5067980;28;20379;-57
2022/09/10 05:58:37;;;;;;;39.58;26.13;;;;;;;;;;5067565;28;20037;-57
2022/09/10 06:01:03;;;;;;;42.20;26.92;;;;;;;;;;5067715;28;20033;-57
2022/09/10 06:03:29;;;;;;;40.97;25.50;;;;;;;;;;5067345;28;20082;-57
2022/09/10 06:05:55;;;;;;;42.28;26.52;;;;;;;;;;5067283;28;20064;-57
2022/09/10 06:08:22;;;;;;;44.08;28.38;;;;;;;;;;5066804;28;20480;-57
2022/09/10 06:10:55;;;;;;;39.30;25.67;;;;;;;;;;5067021;28;20154;-58
2022/09/10 06:13:22;;;;;;;39.60;24.33;;;;;;;;;;5067161;28;20147;-57
2022/09/10 06:15:48;;;;;;;33.30;22.30;;;;;;;;;;5066954;28;20365;-57
2022/09/10 06:18:14;;;;;;;33.60;20.92;;;;;;;;;;5067024;28;20043;-57
2022/09/10 06:20:40;;;;;;;30.40;20.15;;;;;;;;;;5067057;28;20025;-58
2022/09/10 06:23:06;;;;;;;28.77;19.50;;;;;;;;;;5066997;28;20027;-58
2022/09/10 06:25:32;;;;;;;31.85;19.33;;;;;;;;;;5063724;28;20037;-57
2022/09/10 06:27:58;;;;;;;25.40;17.70;;;;;;;;;;5047111;28;20033;-58
2022/09/10 06:30:24;;;;;;;27.40;18.52;;;;;;;;;;5046744;28;20034;-57
2022/09/10 06:32:50;;;;;;;29.15;18.38;;;;;;;;;;5046680;28;20022;-57
2022/09/10 06:35:17;;;;;;;28.35;18.42;;;;;;;;;;5046917;28;20392;-57
2022/09/10 06:37:44;;;;;;;25.77;16.92;;;;;;;;;;5037195;28;20026;-58
2022/09/10 06:40:10;;;;;;;23.73;16.45;;;;;;;;;;5033534;28;20075;-61
2022/09/10 06:42:37;;;;;;;24.60;16.33;;;;;;;;;;5033659;28;20033;-57
2022/09/10 06:45:04;;;;;;;25.67;16.40;;;;;;;;;;5033766;28;20033;-57
2022/09/10 06:47:30;;;;;;;23.50;14.20;;;;;;;;;;5033330;28;20075;-57
2022/09/10 06:49:56;;;;;;;16.65;11.98;;;;;;;;;;5033105;28;20105;-58
2022/09/10 06:52:22;;;;;;;18.02;12.23;;;;;;;;;;5033105;28;20026;-58
2022/09/10 06:54:50;;;;;;;16.92;12.10;;;;;;;;;;5032801;28;20033;-61
2022/09/10 06:57:16;;;;;;;18.65;12.07;;;;;;;;;;5033182;28;20044;-58
2022/09/10 06:59:42;;;;;;;17.10;11.38;;;;;;;;;;5032986;28;20033;-58
2022/09/10 07:02:09;;;;;;;17.75;10.75;;;;;;;;;;5032617;28;20113;-58
2022/09/10 07:04:35;;;;;;;14.98;9.32;;;;;;;;;;5037397;28;20140;-57
2022/09/10 07:07:01;;;;;;;11.35;8.07;;;;;;;;;;5042184;28;20120;-58
2022/09/10 07:09:27;;;;;;;11.95;6.80;;;;;;;;;;5040315;28;20120;-57
2022/09/10 07:11:53;;;;;;;10.23;6.25;;;;;;;;;;5042021;28;20032;-59
2022/09/10 07:14:19;;;;;;;9.70;6.28;;;;;;;;;;5042268;28;20025;-58
2022/09/10 07:16:46;;;;;;;11.43;5.78;;;;;;;;;;5040784;28;20681;-57
2022/09/10 07:19:13;;;;;;;11.18;5.72;;;;;;;;;;5042037;28;20027;-57
2022/09/10 07:21:39;;;;;;;9.02;5.30;;;;;;;;;;5042276;28;20410;-58
2022/09/10 07:24:06;;;;;;;10.27;4.68;;;;;;;;;;5039804;28;20033;-60
2022/09/10 07:26:32;;;;;;;6.28;4.55;;;;;;;;;;5041426;28;20068;-58
2022/09/10 07:28:58;;;;;;;6.13;4.32;;;;;;;;;;5039222;28;20038;-58
2022/09/10 07:31:28;;;;;;;7.72;4.70;;;;;;;;;;5044443;28;20381;-57
2022/09/10 07:33:56;;;;;;;7.60;4.45;;;;;;;;;;5048328;28;20027;-61
2022/09/10 07:36:23;;;;;;;11.88;4.82;;;;;;;;;;5028124;28;20041;-58
2022/09/10 07:38:51;;;;;;;12.43;4.30;;;;;;;;;;5051159;28;20024;-57
2022/09/10 07:41:17;;;;;;;7.97;4.43;;;;;;;;;;5050791;28;20036;-62
2022/09/10 07:43:43;;;;;;;17.48;5.38;;;;;;;;;;5048393;28;20032;-57
2022/09/10 07:46:19;;;;;;;23.33;5.00;;;;;;;;;;5041181;28;20881;-57
2022/09/10 07:48:46;;;;;;;19.52;4.50;;;;;;;;;;5046214;28;20036;-58
2022/09/10 07:51:12;;;;;;;10.85;3.67;;;;;;;;;;5041029;28;20061;-57
2022/09/10 07:53:38;;;;;;;10.93;3.53;;;;;;;;;;5037242;28;20049;-57
2022/09/10 07:56:06;;;;;;;9.15;2.97;;;;;;;;;;5041037;28;20124;-57
2022/09/10 07:58:34;;;;;;;5.75;2.47;;;;;;;;;;5033659;28;20120;-59
2022/09/10 08:01:01;;;;;;;6.35;2.17;;;;;;;;;;5032923;28;20021;-58
2022/09/10 08:03:27;;;;;;;2.97;1.52;;;;;;;;;;5045352;28;20067;-59
2022/09/10 08:05:54;;;;;;;3.20;1.60;;;;;;;;;;5041023;28;20044;-61
2022/09/10 08:08:20;;;;;;;5.35;1.80;;;;;;;;;;5041218;28;20408;-59
2022/09/10 08:10:47;;;;;;;4.93;1.70;;;;;;;;;;5042045;28;20030;-63
2022/09/10 08:13:13;;;;;;;3.47;1.48;;;;;;;;;;5024937;28;20018;-59
2022/09/10 08:15:43;;;;;;;6.13;1.80;;;;;;;;;;5040562;28;20024;-58
2022/09/10 08:18:10;;;;;;;8.13;1.60;;;;;;;;;;5041512;28;20400;-58
2022/09/10 08:20:37;;;;;;;4.28;1.85;;;;;;;;;;5036436;28;20212;-59
2022/09/10 08:23:03;;;;;;;7.00;1.52;;;;;;;;;;5015579;28;20031;-59
2022/09/10 08:25:29;;;;;;;4.82;1.90;;;;;;;;;;5041544;28;20033;-59
2022/09/10 08:27:56;;;;;;;4.97;1.63;;;;;;;;;;5040024;28;20037;-63
2022/09/10 08:30:22;;;;;;;5.78;1.60;;;;;;;;;;5040968;28;20025;-65
2022/09/10 08:32:48;;;;;;;3.17;1.98;;;;;;;;;;5041398;28;20025;-59
2022/09/10 08:35:14;;;;;;;3.88;1.70;;;;;;;;;;5039406;28;20036;-59
2022/09/10 08:37:41;;;;;;;4.68;1.95;;;;;;;;;;5040796;28;20052;-58
2022/09/10 08:40:10;;;;;;;4.65;2.05;;;;;;;;;;5041003;28;20078;-59
2022/09/10 08:42:40;;;;;;;3.88;2.00;;;;;;;;;;5039574;28;20453;-59
2022/09/10 08:45:13;;;;;;;5.13;2.10;;;;;;;;;;5039412;28;20039;-58
2022/09/10 08:47:54;;;;;;;3.95;2.08;;;;;;;;;;5038769;28;20436;-58
2022/09/10 08:50:20;;;;;;;4.72;2.25;;;;;;;;;;5041334;28;20032;-59
2022/09/10 08:52:48;;;;;;;5.20;2.22;;;;;;;;;;5024569;28;20033;-58
2022/09/10 08:55:17;;;;;;;6.22;1.90;;;;;;;;;;5039986;28;20465;-59
2022/09/10 08:57:46;;;;;;;4.78;1.88;;;;;;;;;;5041418;28;20037;-59
2022/09/10 09:00:15;;;;;;;2.85;1.45;;;;;;;;;;5039980;28;20017;-57
2022/09/10 09:03:01;;;;;;;4.80;1.60;;;;;;;;;;5042821;28;20033;-58
2022/09/10 09:05:27;;;;;;;4.47;1.70;;;;;;;;;;5039491;28;20049;-57
2022/09/10 09:07:54;;;;;;;3.65;1.80;;;;;;;;;;5042432;28;20028;-57
2022/09/10 09:10:20;;;;;;;3.85;1.75;;;;;;;;;;5041502;28;20033;-58
2022/09/10 09:12:52;;;;;;;2.60;1.50;;;;;;;;;;5039499;28;20534;-57
2022/09/10 09:15:24;;;;;;;7.38;1.63;;;;;;;;;;5036088;28;20059;-58
2022/09/10 09:18:22;;;;;;;5.88;2.13;;;;;;;;;;5037072;28;20029;-63
2022/09/10 09:20:51;;;;;;;5.25;2.60;;;;;;;;;;4950051;29;20049;-58
2022/09/10 09:23:18;;;;;;;5.10;2.40;;;;;;;;;;4950521;29;20043;-57
2022/09/10 09:25:46;;;;;;;5.13;2.10;;;;;;;;;;4949753;28;20117;-57
2022/09/10 09:28:21;;;;;;;4.53;2.25;;;;;;;;;;4950183;29;20027;-57
2022/09/10 09:30:48;;;;;;;6.70;2.58;;;;;;;;;;4958076;28;20047;-59
2022/09/10 09:33:16;;;;;;;9.38;2.20;;;;;;;;;;4969392;28;20119;-59
2022/09/10 09:35:53;;;;;;;4.40;2.10;;;;;;;;;;4969557;28;20026;-59
2022/09/10 09:38:24;;;;;;;5.55;1.90;;;;;;;;;;4969283;28;20509;-59
2022/09/10 09:40:54;;;;;;;5.07;2.28;;;;;;;;;;4969424;28;20043;-59
2022/09/10 09:43:34;;;;;;;5.20;2.60;;;;;;;;;;4955119;28;20035;-59
2022/09/10 09:46:00;;;;;;;7.88;2.42;;;;;;;;;;4950693;29;20043;-59
2022/09/10 09:48:29;;;;;;;7.40;2.13;;;;;;;;;;4950137;29;20032;-59
2022/09/10 09:50:59;;;;;;;3.10;1.98;;;;;;;;;;4949377;29;20032;-59
2022/09/10 09:53:29;;;;;;;5.03;2.10;;;;;;;;;;4949877;29;20035;-59
2022/09/10 09:55:57;;;;;;;7.82;2.58;;;;;;;;;;4984171;28;20056;-59
2022/09/10 09:58:25;;;;;;;7.38;1.80;;;;;;;;;;5038966;28;20100;-59
2022/09/10 10:01:03;;;;;;;5.80;2.00;;;;;;;;;;5044768;28;20029;-59
2022/09/10 10:03:30;;;;;;;4.03;1.80;;;;;;;;;;5036756;28;20021;-58
2022/09/10 10:06:04;;;;;;;3.63;1.80;;;;;;;;;;5040453;28;20459;-58
2022/09/10 10:08:33;;;;;;;5.65;1.85;;;;;;;;;;5042227;28;20053;-58
2022/09/10 10:10:59;;;;;;;4.72;2.08;;;;;;;;;;5029708;28;20022;-59
2022/09/10 10:13:34;;;;;;;2.90;1.70;;;;;;;;;;5033516;28;20534;-60
2022/09/10 10:16:13;;;;;;;2.63;1.50;;;;;;;;;;5033792;28;20037;-58
2022/09/10 10:18:41;;;;;;;3.83;1.77;;;;;;;;;;5016163;28;20421;-58
2022/09/10 10:21:13;;;;;;;11.15;1.88;;;;;;;;;;5033932;28;20033;-58
2022/09/10 10:23:39;;;;;;;12.10;2.88;;;;;;;;;;5034024;28;20032;-59
2022/09/10 10:26:20;;;;;;;3.95;1.88;;;;;;;;;;5033485;28;20049;-59
2022/09/10 10:28:58;;;;;;;41.33;8.40;;;;;;;;;;5033841;28;20068;-58
2022/09/10 10:31:31;;;;;;;16.70;3.58;;;;;;;;;;5050950;28;20046;-58
2022/09/10 10:34:13;;;;;;;36.22;8.00;;;;;;;;;;5043664;28;20103;-60
2022/09/10 10:36:55;;;;;;;15.45;3.95;;;;;;;;;;5043246;28;20921;-57
2022/09/10 10:39:29;;;;;;;20.25;4.72;;;;;;;;;;5053232;28;20041;-56
2022/09/10 10:42:07;;;;;;;7.90;2.70;;;;;;;;;;5053310;28;20021;-58
2022/09/10 10:44:48;;;;;;;9.20;2.92;;;;;;;;;;5053451;28;20025;-58
2022/09/10 10:47:18;;;;;;;7.38;2.13;;;;;;;;;;5053136;28;20045;-58
2022/09/10 10:50:02;;;;;;;2.65;1.30;;;;;;;;;;5053203;28;20473;-58
2022/09/10 10:52:28;;;;;;;4.60;1.80;;;;;;;;;;5052694;28;20025;-58
2022/09/10 10:55:00;;;;;;;4.10;1.65;;;;;;;;;;5053147;28;20043;-58
2022/09/10 10:57:26;;;;;;;;;;;;;;;;;;5052828;28;20036;-58
2022/09/10 11:00:11;;;;;;;5.05;1.70;;;;;;;;;;5033009;28;20372;-57
2022/09/10 11:02:56;;;;;;;3.97;1.48;;;;;;;;;;5044599;28;20502;-59
2022/09/10 11:05:29;;;;;;;5.13;1.83;;;;;;;;;;5053236;28;20183;-59
2022/09/10 11:07:58;;;;;;;3.30;1.42;;;;;;;;;;5053123;28;20013;-57
2022/09/10 11:10:30;;;;;;;5.43;1.83;;;;;;;;;;5053269;28;20056;-58
2022/09/10 11:13:15;;;;;;;3.55;1.63;;;;;;;;;;5053109;28;20036;-58
2022/09/10 11:15:46;;;;;;;3.53;1.40;;;;;;;;;;5036855;28;20029;-57
2022/09/10 11:18:27;;;;;;;3.92;1.60;;;;;;;;;;5032921;28;20045;-60
2022/09/10 11:20:59;;;;;;;4.28;1.77;;;;;;;;;;5040207;28;20048;-57
2022/09/10 11:23:44;;;;;;;3.28;1.55;;;;;;;;;;5037196;28;20148;-57
2022/09/10 11:26:17;;;;;;;5.30;2.13;;;;;;;;;;5036764;28;20160;-59
2022/09/10 11:28:53;;;;;;;3.33;1.67;;;;;;;;;;5032546;28;20461;-59
2022/09/10 11:31:32;;;;;;;4.93;1.60;;;;;;;;;;5032961;28;20080;-59
2022/09/10 11:34:18;;;;;;;3.78;1.50;;;;;;;;;;5033155;28;20064;-66
2022/09/10 11:37:04;;;;;;;3.45;1.30;;;;;;;;;;5032608;28;20035;-65
2022/09/10 11:39:35;;;;;;;5.32;1.60;;;;;;;;;;5032475;28;20385;-66
2022/09/10 11:42:07;;;;;;;3.97;1.45;;;;;;;;;;5032485;28;20100;-58
2022/09/10 11:44:43;;;;;;;4.93;1.75;;;;;;;;;;5032684;28;20029;-58
2022/09/10 11:47:18;;;;;;;6.88;2.63;;;;;;;;;;5032268;28;20059;-59
2022/09/10 11:50:10;;;;;;;4.45;2.78;;;;;;;;;;5032427;28;20047;-60
2022/09/10 11:52:36;;;;;;;;;;;;;;;;;;5002384;28;20523;-58
2022/09/10 11:55:07;;;;;;;5.22;2.42;;;;;;;;;;5032343;28;20284;-59
2022/09/10 11:57:38;;;;;;;8.10;2.20;;;;;;;;;;5046482;28;20033;-59
2022/09/10 12:00:08;;;;;;;6.82;2.00;;;;;;;;;;5052175;28;20040;-58
2022/09/10 12:02:50;;;;;;;3.83;1.90;;;;;;;;;;5052073;28;20029;-59
2022/09/10 12:05:22;;;;;;;3.70;1.63;;;;;;;;;;5036217;28;20045;-58
2022/09/10 12:08:07;;;;;;;3.80;1.50;;;;;;;;;;5032189;28;20025;-57
2022/09/10 12:10:46;;;;;;;4.43;1.48;;;;;;;;;;5032000;28;20033;-57
2022/09/10 12:13:14;;;;;;;2.90;1.73;;;;;;;;;;5032143;28;20400;-58
2022/09/10 12:15:40;;;;;;;2.97;1.40;;;;;;;;;;5044573;28;20116;-59
2022/09/10 12:18:06;;;;;;;2.95;1.20;;;;;;;;;;5052200;28;20385;-58
2022/09/10 12:20:36;;;;;;;3.53;1.33;;;;;;;;;;5052191;28;20093;-57
2022/09/10 12:23:02;;;;;;;2.28;1.50;;;;;;;;;;5041905;28;20049;-59
2022/09/10 12:25:30;;;;;;;3.45;1.40;;;;;;;;;;5031507;28;20041;-59
2022/09/10 12:28:06;;;;;;;2.72;1.50;;;;;;;;;;5031870;28;20037;-57
2022/09/10 12:30:32;;;;;;;3.70;1.30;;;;;;;;;;5031532;28;20037;-58
2022/09/10 12:32:59;;;;;;;1.98;1.25;;;;;;;;;;5043336;28;20025;-57
2022/09/10 12:35:33;;;;;;;3.15;1.13;;;;;;;;;;5045793;28;20359;-59
2022/09/10 12:38:18;;;;;;;5.13;1.30;;;;;;;;;;5031992;28;20469;-58
2022/09/10 12:40:48;;;;;;;2.78;1.27;;;;;;;;;;5040261;28;20037;-59
2022/09/10 12:43:33;;;;;;;2.28;1.10;;;;;;;;;;5031268;28;20027;-58
2022/09/10 12:46:08;;;;;;;3.13;1.15;;;;;;;;;;5030981;28;20041;-61
2022/09/10 12:48:43;;;;;;;4.85;2.15;;;;;;;;;;5034968;28;20021;-64
2022/09/10 12:51:16;;;;;;;5.68;2.10;;;;;;;;;;5031378;28;20056;-59
2022/09/10 12:53:57;;;;;;;4.03;1.80;;;;;;;;;;5031149;28;20017;-57
2022/09/10 12:56:38;;;;;;;3.75;1.70;;;;;;;;;;5031388;28;20084;-65
2022/09/10 12:59:10;;;;;;;4.30;1.50;;;;;;;;;;5031032;28;20088;-59
2022/09/10 13:01:41;;;;;;;4.85;1.33;;;;;;;;;;5031203;28;20047;-58
2022/09/10 13:04:36;;;;;;;4.78;1.70;;;;;;;;;;5030726;28;20025;-58
2022/09/10 13:07:04;;;;;;;3.78;2.10;;;;;;;;;;4950534;29;20047;-58
2022/09/10 13:09:35;;;;;;;5.32;1.92;;;;;;;;;;4950904;29;20118;-59
2022/09/10 13:12:03;;;;;;;5.05;2.13;;;;;;;;;;4950573;29;20043;-57
2022/09/10 13:14:34;;;;;;;6.82;2.72;;;;;;;;;;4950746;29;20406;-59
2022/09/10 13:17:01;;;;;;;3.95;1.38;;;;;;;;;;4950684;29;20033;-59
2022/09/10 13:19:27;;;;;;;12.45;2.72;;;;;;;;;;4950975;29;20031;-59
2022/09/10 13:21:54;;;;;;;7.03;3.33;;;;;;;;;;4950835;29;20027;-59
2022/09/10 13:24:35;;;;;;;11.30;3.88;;;;;;;;;;4949966;29;20081;-58
2022/09/10 13:27:03;;;;;;;7.13;1.83;;;;;;;;;;4950231;28;20098;-58
2022/09/10 13:29:56;;;;;;;6.38;2.25;;;;;;;;;;4960689;28;20062;-58
2022/09/10 13:32:25;;;;;;;7.15;1.98;;;;;;;;;;4967142;28;20046;-58
2022/09/10 13:34:53;;;;;;;5.68;1.70;;;;;;;;;;4969951;28;20039;-58
2022/09/10 13:37:25;;;;;;;2.85;1.70;;;;;;;;;;4969639;28;20045;-58
2022/09/10 13:40:07;;;;;;;3.78;1.65;;;;;;;;;;4969484;28;20065;-58
2022/09/10 13:42:36;;;;;;;4.55;2.13;;;;;;;;;;4980585;28;20165;-58
2022/09/10 13:45:17;;;;;;;4.20;1.60;;;;;;;;;;5050416;28;20037;-58
2022/09/10 13:47:46;;;;;;;2.35;1.40;;;;;;;;;;5040448;28;20106;-58
2022/09/10 13:50:13;;;;;;;5.10;1.92;;;;;;;;;;5034868;28;20026;-58
2022/09/10 13:52:41;;;;;;;4.80;1.58;;;;;;;;;;5045783;28;20040;-60
2022/09/10 13:55:07;;;;;;;3.67;1.83;;;;;;;;;;5054627;28;20040;-58
2022/09/10 13:57:39;;;;;;;2.63;1.60;;;;;;;;;;5054651;28;20040;-59
2022/09/10 14:00:07;;;;;;;;;;;;;;;;;;5054626;28;20036;-58
2022/09/10 14:02:59;;;;;;;5.80;1.55;;;;;;;;;;5054505;28;20014;-59
2022/09/10 14:05:25;;;;;;;;;;;;;;;;;;5051193;28;20060;-56
2022/09/10 14:07:53;;;;;;;6.10;2.38;;;;;;;;;;5054265;28;19909;-58
2022/09/10 14:10:20;;;;;;;6.47;4.00;;;;;;;;;;5054202;28;20032;-58
2022/09/10 14:12:47;;;;;;;6.50;2.50;;;;;;;;;;5054131;28;20025;-58
2022/09/10 14:15:17;;;;;;;6.30;3.10;;;;;;;;;;5054235;28;20108;-59
2022/09/10 14:17:44;;;;;;;4.45;2.90;;;;;;;;;;5054001;28;20387;-59
2022/09/10 14:20:37;;;;;;;6.35;2.80;;;;;;;;;;5054563;28;20017;-60
2022/09/10 14:23:03;;;;;;;;;;;;;;;;;;5051237;28;20099;-58
2022/09/10 14:25:33;;;;;;;3.63;2.45;;;;;;;;;;5053757;28;19920;-59
2022/09/10 14:28:15;;;;;;;3.85;1.85;;;;;;;;;;5053859;28;20064;-59
2022/09/10 14:30:41;;;;;;;9.02;2.42;;;;;;;;;;5053775;28;20017;-58
2022/09/10 14:33:26;;;;;;;3.75;1.73;;;;;;;;;;5039063;28;20469;-65
2022/09/10 14:35:52;;;;;;;4.50;2.35;;;;;;;;;;5034118;28;20044;-59
2022/09/10 14:38:21;;;;;;;4.30;1.90;;;;;;;;;;5033820;28;20036;-59
2022/09/10 14:40:48;;;;;;;2.95;1.48;;;;;;;;;;5043319;28;20028;-67
2022/09/10 14:43:32;;;;;;;4.47;1.95;;;;;;;;;;5053529;28;20032;-58
2022/09/10 14:45:59;;;;;;;4.13;1.80;;;;;;;;;;5053683;28;20040;-58
2022/09/10 14:48:28;;;;;;;3.70;1.83;;;;;;;;;;5053433;28;20021;-58
2022/09/10 14:51:13;;;;;;;4.82;2.33;;;;;;;;;;5034744;28;20029;-58
2022/09/10 14:53:40;;;;;;;2.53;1.40;;;;;;;;;;5033570;28;20032;-58
2022/09/10 14:56:10;;;;;;;3.55;2.05;;;;;;;;;;5033341;28;20120;-57
2022/09/10 14:58:36;;;;;;;5.90;2.45;;;;;;;;;;5047106;28;20365;-58
2022/09/10 15:01:03;;;;;;;3.13;1.52;;;;;;;;;;5043134;28;20492;-58
2022/09/10 15:03:29;;;;;;;2.38;1.40;;;;;;;;;;5033601;28;20029;-58
2022/09/10 15:05:55;;;;;;;5.68;1.48;;;;;;;;;;5033392;28;20511;-58
2022/09/10 15:08:21;;;;;;;2.60;1.50;;;;;;;;;;5033148;28;20021;-60
2022/09/10 15:10:48;;;;;;;3.05;1.40;;;;;;;;;;5033865;28;20075;-58
2022/09/10 15:13:17;;;;;;;3.22;1.80;;;;;;;;;;5032911;28;20052;-58
2022/09/10 15:15:45;;;;;;;3.58;2.15;;;;;;;;;;5036684;28;20033;-58
2022/09/10 15:18:16;;;;;;;4.38;1.70;;;;;;;;;;5052963;28;20021;-59
2022/09/10 15:20:42;;;;;;;2.25;1.30;;;;;;;;;;5052944;28;20033;-59
2022/09/10 15:23:09;;;;;;;3.50;1.55;;;;;;;;;;5053067;28;20033;-59
2022/09/10 15:25:38;;;;;;;3.65;1.40;;;;;;;;;;5033272;28;20056;-59
2022/09/10 15:28:05;;;;;;;2.88;1.55;;;;;;;;;;5033124;28;20112;-59
2022/09/10 15:30:31;;;;;;;3.25;1.40;;;;;;;;;;5033152;28;20112;-59
2022/09/10 15:32:57;;;;;;;2.67;1.40;;;;;;;;;;5032938;28;20725;-63
2022/09/10 15:35:24;;;;;;;2.42;1.30;;;;;;;;;;5032881;28;20108;-60
2022/09/10 15:37:50;;;;;;;2.10;1.10;;;;;;;;;;5032985;28;20033;-58
2022/09/10 15:40:17;;;;;;;5.35;1.20;;;;;;;;;;5032903;28;20057;-59
2022/09/10 15:42:43;;;;;;;1.95;1.05;;;;;;;;;;5032690;28;20021;-58
2022/09/10 15:45:09;;;;;;;4.25;1.40;;;;;;;;;;5042911;28;20041;-63
2022/09/10 15:47:35;;;;;;;2.10;1.10;;;;;;;;;;5052414;28;20437;-59
2022/09/10 15:50:03;;;;;;;1.90;1.30;;;;;;;;;;5052386;28;20116;-59
2022/09/10 15:52:29;;;;;;;2.42;1.23;;;;;;;;;;5052335;28;20078;-61
2022/09/10 15:54:55;;;;;;;3.13;1.40;;;;;;;;;;5052205;28;20037;-59
2022/09/10 15:57:21;;;;;;;2.70;1.10;;;;;;;;;;5052406;28;20086;-62
2022/09/10 15:59:47;;;;;;;4.82;1.88;;;;;;;;;;5052334;28;20055;-57
2022/09/10 16:02:13;;;;;;;3.90;1.20;;;;;;;;;;5052019;28;20032;-57
2022/09/10 16:04:39;;;;;;;3.88;1.30;;;;;;;;;;5052267;28;20029;-59
2022/09/10 16:07:07;;;;;;;3.40;1.30;;;;;;;;;;5051842;28;20033;-57
2022/09/10 16:09:33;;;;;;;2.65;1.17;;;;;;;;;;5050556;28;20440;-58
2022/09/10 16:11:59;;;;;;;2.40;1.40;;;;;;;;;;5052202;28;20036;-58
2022/09/10 16:14:25;;;;;;;4.55;1.48;;;;;;;;;;5051936;28;20395;-59
2022/09/10 16:16:52;;;;;;;3.10;1.30;;;;;;;;;;5052032;28;20035;-59
2022/09/10 16:19:19;;;;;;;4.13;1.20;;;;;;;;;;5051672;28;20036;-66
2022/09/10 16:21:45;;;;;;;2.85;1.30;;;;;;;;;;5051945;28;20028;-57
2022/09/10 16:24:11;;;;;;;3.67;1.15;;;;;;;;;;5051651;28;20025;-58
2022/09/10 16:26:39;;;;;;;2.22;1.15;;;;;;;;;;5051245;28;20041;-59
2022/09/10 16:29:07;;;;;;;3.08;1.40;;;;;;;;;;5041494;28;20040;-59
2022/09/10 16:31:34;;;;;;;2.03;1.38;;;;;;;;;;5031584;28;20025;-60
2022/09/10 16:34:02;;;;;;;3.88;1.45;;;;;;;;;;5031564;28;20043;-59
2022/09/10 16:36:30;;;;;;;3.83;1.27;;;;;;;;;;5031727;28;20354;-59
2022/09/10 16:38:57;;;;;;;2.72;1.17;;;;;;;;;;5031536;28;20421;-62
2022/09/10 16:41:23;;;;;;;2.90;1.67;;;;;;;;;;5031373;28;20056;-59
2022/09/10 16:43:50;;;;;;;4.65;1.30;;;;;;;;;;5031291;28;20132;-59
2022/09/10 16:46:16;;;;;;;3.58;1.80;;;;;;;;;;5031414;28;20029;-59
2022/09/10 16:48:42;;;;;;;2.38;1.40;;;;;;;;;;5031056;28;20465;-59
2022/09/10 16:51:11;;;;;;;4.35;2.33;;;;;;;;;;5031364;28;20026;-63
2022/09/10 16:53:37;;;;;;;2.90;1.73;;;;;;;;;;5031340;28;20026;-60
2022/09/10 16:56:05;;;;;;;4.97;1.90;;;;;;;;;;5031290;28;20030;-60
2022/09/10 16:58:32;;;;;;;5.40;1.83;;;;;;;;;;5031142;28;20025;-60
2022/09/10 17:00:58;;;;;;;3.33;1.70;;;;;;;;;;5031332;28;20026;-62
2022/09/10 17:03:25;;;;;;;4.60;2.00;;;;;;;;;;5031028;28;20026;-61
2022/09/10 17:05:52;;;;;;;3.70;1.73;;;;;;;;;;5031434;28;20030;-64
2022/09/10 17:08:18;;;;;;;3.47;1.75;;;;;;;;;;5030929;28;20106;-64
2022/09/10 17:10:44;;;;;;;2.85;1.50;;;;;;;;;;5030883;28;20040;-59
2022/09/10 17:13:10;;;;;;;3.53;1.90;;;;;;;;;;5044196;28;20450;-58
2022/09/10 17:15:37;;;;;;;4.28;1.90;;;;;;;;;;5050619;28;20135;-56
2022/09/10 17:18:06;;;;;;;2.67;1.55;;;;;;;;;;5050551;28;20031;-67
2022/09/10 17:20:32;;;;;;;4.18;1.42;;;;;;;;;;5050488;28;20048;-71
2022/09/10 17:22:59;;;;;;;3.70;1.88;;;;;;;;;;5050638;28;20031;-57
2022/09/10 17:25:25;;;;;;;6.82;1.73;;;;;;;;;;5050409;28;20072;-72
2022/09/10 17:27:52;;;;;;;5.28;2.25;;;;;;;;;;5050907;28;20112;-57
2022/09/10 17:30:18;;;;;;;6.22;1.98;;;;;;;;;;5050727;28;20025;-57
2022/09/10 17:32:44;;;;;;;3.80;1.77;;;;;;;;;;5050440;28;20108;-67
2022/09/10 17:35:10;;;;;;;3.78;1.92;;;;;;;;;;5050802;28;20043;-63
2022/09/10 17:37:37;;;;;;;6.70;2.10;;;;;;;;;;5050430;28;20024;-59
2022/09/10 17:40:04;;;;;;;3.42;1.92;;;;;;;;;;5050717;28;20025;-59
2022/09/10 17:42:30;;;;;;;4.53;2.40;;;;;;;;;;5050732;28;20124;-59
2022/09/10 17:44:56;;;;;;;4.63;2.33;;;;;;;;;;5050701;28;20025;-59
2022/09/10 17:47:22;;;;;;;3.17;2.20;;;;;;;;;;5049961;28;20106;-58
2022/09/10 17:49:49;;;;;;;5.05;2.35;;;;;;;;;;5050415;28;20090;-62
2022/09/10 17:52:15;;;;;;;6.18;2.33;;;;;;;;;;5048960;28;20041;-67
2022/09/10 17:54:41;;;;;;;3.88;2.13;;;;;;;;;;5053238;28;20056;-71
2022/09/10 17:57:07;;;;;;;7.38;3.00;;;;;;;;;;5059707;28;20397;-69
2022/09/10 17:59:35;;;;;;;7.70;3.97;;;;;;;;;;5049379;28;20025;-67
2022/09/10 18:02:01;;;;;;;8.02;5.60;;;;;;;;;;5049585;28;20047;-69
2022/09/10 18:04:28;;;;;;;14.45;8.43;;;;;;;;;;5049353;28;20025;-65
2022/09/10 18:06:54;;;;;;;13.90;8.40;;;;;;;;;;5047458;28;20479;-61
2022/09/10 18:09:21;;;;;;;13.95;7.70;;;;;;;;;;5049309;28;20025;-65
2022/09/10 18:11:47;;;;;;;14.93;8.82;;;;;;;;;;5048944;28;20032;-69
2022/09/10 18:14:16;;;;;;;16.10;10.18;;;;;;;;;;5048889;28;20025;-69
2022/09/10 18:16:43;;;;;;;21.27;13.43;;;;;;;;;;5048631;28;20114;-67
2022/09/10 18:19:12;;;;;;;21.85;13.68;;;;;;;;;;5048243;28;20033;-59
2022/09/10 18:21:39;;;;;;;29.98;20.08;;;;;;;;;;5044421;28;20029;-68
2022/09/10 18:24:16;;;;;;;31.75;17.73;;;;;;;;;;5029069;28;20052;-64
2022/09/10 18:26:44;;;;;;;23.58;12.95;;;;;;;;;;5028132;28;20061;-73
2022/09/10 18:29:21;;;;;;;14.88;8.82;;;;;;;;;;5028914;28;20034;-74
2022/09/10 18:31:51;;;;;;;9.98;5.85;;;;;;;;;;5028801;28;20108;-64
2022/09/10 18:34:20;;;;;;;11.23;5.65;;;;;;;;;;5031476;28;20025;-72
2022/09/10 18:36:56;;;;;;;7.93;4.65;;;;;;;;;;5032545;28;20044;-65
2022/09/10 18:39:47;;;;;;;7.25;4.15;;;;;;;;;;5031537;28;20044;-58
2022/09/10 18:42:33;;;;;;;7.22;3.50;;;;;;;;;;5041133;28;20029;-62
2022/09/10 18:48:02;;;;;;;7.25;2.90;;;;;;;;;;5051093;28;20128;-61
2022/09/10 18:56:33;;;;;;;6.20;3.10;;;;;;;;;;5051720;28;20048;-65
2022/09/10 18:59:07;;;;;;;7.70;4.13;;;;;;;;;;5051185;28;20029;-61
2022/09/10 19:01:35;;;;;;;11.30;5.38;;;;;;;;;;5051225;28;20476;-71
2022/09/10 19:04:02;;;;;;;12.35;4.57;;;;;;;;;;5051358;28;20037;-60
2022/09/10 19:09:15;;;;;;;6.72;3.78;;;;;;;;;;5051251;28;20444;-75
2022/09/10 19:17:30;;;;;;;8.20;3.45;;;;;;;;;;5050743;28;20592;-58
2022/09/10 19:20:05;;;;;;;5.93;3.08;;;;;;;;;;5051394;28;20068;-60
2022/09/10 19:22:32;;;;;;;6.85;3.80;;;;;;;;;;5051963;28;20091;-58
2022/09/10 19:24:58;;;;;;;6.30;3.10;;;;;;;;;;5034845;28;20047;-57
2022/09/10 19:27:24;;;;;;;5.72;3.20;;;;;;;;;;5048820;28;20493;-59
2022/09/10 19:29:52;;;;;;;7.38;3.80;;;;;;;;;;5040823;28;20529;-59
2022/09/10 19:32:18;;;;;;;7.85;3.67;;;;;;;;;;5042974;28;20021;-58
2022/09/10 19:34:44;;;;;;;8.50;3.72;;;;;;;;;;5040305;28;20021;-58
2022/09/10 19:37:10;;;;;;;8.70;4.03;;;;;;;;;;5042643;28;20021;-59
2022/09/10 19:39:36;;;;;;;7.50;3.35;;;;;;;;;;5039377;28;20025;-58
2022/09/10 19:42:04;;;;;;;7.30;3.80;;;;;;;;;;5041962;28;20479;-58
2022/09/10 19:44:32;;;;;;;9.40;3.90;;;;;;;;;;5041841;28;20018;-72
2022/09/10 19:46:58;;;;;;;10.52;3.38;;;;;;;;;;5041306;28;20032;-75
2022/09/10 19:49:24;;;;;;;8.50;3.70;;;;;;;;;;5040884;28;20028;-59
2022/09/10 19:51:50;;;;;;;7.72;3.63;;;;;;;;;;5039781;28;20104;-63
2022/09/10 19:54:16;;;;;;;6.70;3.20;;;;;;;;;;5044965;28;20021;-67
2022/09/10 19:56:42;;;;;;;10.32;3.55;;;;;;;;;;5020885;28;20041;-71
2022/09/10 19:59:09;;;;;;;7.82;3.35;;;;;;;;;;5047338;28;20025;-65
2022/09/10 20:01:36;;;;;;;6.95;3.22;;;;;;;;;;5047338;28;20890;-60
2022/09/10 20:04:04;;;;;;;5.40;3.00;;;;;;;;;;5051042;28;20430;-60
2022/09/10 20:06:31;;;;;;;6.78;3.05;;;;;;;;;;5044713;28;20037;-60
2022/09/10 20:08:57;;;;;;;5.43;3.22;;;;;;;;;;5048099;28;20052;-69
2022/09/10 20:11:26;;;;;;;7.60;3.00;;;;;;;;;;5050001;28;20036;-61
2022/09/10 20:13:56;;;;;;;5.65;2.47;;;;;;;;;;5049961;28;20017;-77
2022/09/10 20:16:24;;;;;;;6.15;2.65;;;;;;;;;;5049104;28;20040;-68
2022/09/10 20:18:51;;;;;;;6.57;2.97;;;;;;;;;;5044446;28;20036;-61
2022/09/10 20:21:24;;;;;;;14.02;9.27;;;;;;;;;;5045457;28;20025;-66
2022/09/10 20:23:51;;;;;;;7.93;2.88;;;;;;;;;;5038452;28;20029;-60
2022/09/10 20:26:19;;;;;;;10.23;3.05;;;;;;;;;;5040290;28;20106;-59
2022/09/10 20:28:48;;;;;;;6.50;2.95;;;;;;;;;;5039435;28;20350;-69
2022/09/10 20:31:15;;;;;;;7.60;2.67;;;;;;;;;;5040318;28;20075;-59
2022/09/10 20:33:41;;;;;;;6.28;2.72;;;;;;;;;;5040308;28;20059;-66
2022/09/10 20:36:13;;;;;;;6.93;3.30;;;;;;;;;;5041988;28;20168;-59
2022/09/10 20:38:40;;;;;;;6.97;3.33;;;;;;;;;;5044679;28;20017;-68
